createdAt,value
2018-09-20T00:01:01.119Z,61.64
2018-09-20T00:03:31.056Z,61.29
2018-09-20T00:06:01.116Z,62.04
2018-09-20T00:08:32.073Z,62.04
2018-09-20T00:11:02.115Z,61.58
2018-09-20T00:13:32.093Z,61.99
2018-09-20T00:16:02.082Z,61.75
2018-09-20T00:18:32.141Z,62.15
2018-09-20T00:21:02.139Z,62.53
2018-09-20T00:23:32.362Z,62.62
2018-09-20T00:26:02.359Z,63.04
2018-09-20T00:28:32.368Z,62.81
2018-09-20T00:31:02.363Z,63.64
2018-09-20T00:33:32.346Z,63.45
2018-09-20T00:36:02.344Z,62.67
2018-09-20T00:38:32.458Z,63.03
2018-09-20T00:41:02.442Z,62.73
2018-09-20T00:43:32.395Z,62.67
2018-09-20T00:46:02.380Z,62.30
2018-09-20T00:48:32.374Z,62.38
2018-09-20T00:51:02.337Z,63.58
2018-09-20T00:53:33.375Z,62.79
2018-09-20T00:56:03.535Z,63.75
2018-09-20T00:58:33.584Z,63.71
2018-09-20T01:01:03.598Z,62.35
2018-09-20T01:03:33.590Z,63.52
2018-09-20T01:06:03.661Z,64.42
2018-09-20T01:08:33.659Z,64.53
2018-09-20T01:11:03.710Z,63.50
2018-09-20T01:13:33.787Z,63.84
2018-09-20T01:16:03.761Z,63.87
2018-09-20T01:18:33.790Z,64.08
2018-09-20T01:21:03.746Z,63.84
2018-09-20T01:23:33.823Z,63.86
2018-09-20T01:26:03.829Z,64.58
2018-09-20T01:28:33.828Z,64.06
2018-09-20T01:31:03.781Z,64.55
2018-09-20T01:33:33.795Z,64.54
2018-09-20T01:36:03.783Z,63.93
2018-09-20T01:38:33.795Z,63.66
2018-09-20T01:41:03.819Z,63.68
2018-09-20T01:43:33.915Z,64.22
2018-09-20T01:46:03.897Z,64.15
2018-09-20T01:48:33.927Z,64.50
2018-09-20T01:51:03.944Z,64.36
2018-09-20T01:53:33.833Z,64.28
2018-09-20T01:56:03.835Z,63.97
2018-09-20T01:58:33.832Z,64.54
2018-09-20T02:01:04.102Z,64.90
2018-09-20T02:03:34.088Z,64.76
2018-09-20T02:06:05.427Z,64.44
2018-09-20T02:08:35.458Z,64.24
2018-09-20T02:11:05.430Z,65.13
2018-09-20T02:13:35.399Z,64.85
2018-09-20T02:16:05.386Z,64.53
2018-09-20T02:18:35.330Z,64.89
2018-09-20T02:21:05.287Z,65.20
2018-09-20T02:23:35.235Z,65.04
2018-09-20T02:26:05.209Z,65.10
2018-09-20T02:28:35.110Z,64.55
2018-09-20T02:31:05.011Z,65.17
2018-09-20T02:33:35.007Z,64.82
2018-09-20T02:36:04.872Z,65.06
2018-09-20T02:38:34.513Z,64.37
2018-09-20T02:41:04.309Z,64.04
2018-09-20T02:43:33.952Z,64.60
2018-09-20T02:46:03.586Z,65.02
2018-09-20T02:48:33.193Z,64.60
2018-09-20T02:51:02.814Z,65.07
2018-09-20T02:53:32.429Z,65.88
2018-09-20T02:56:02.035Z,63.98
2018-09-20T02:58:31.643Z,64.48
2018-09-20T03:01:01.279Z,65.10
2018-09-20T03:03:31.182Z,64.42
2018-09-20T03:06:01.015Z,64.27
2018-09-20T03:08:30.649Z,64.39
2018-09-20T03:11:00.314Z,65.62
2018-09-20T03:13:29.949Z,65.01
2018-09-20T03:15:59.934Z,65.18
2018-09-20T03:18:29.905Z,65.16
2018-09-20T03:20:59.917Z,65.10
2018-09-20T03:23:29.959Z,65.10
2018-09-20T03:25:59.893Z,65.50
2018-09-20T03:28:30.861Z,65.76
2018-09-20T03:31:01.115Z,65.34
2018-09-20T03:33:30.717Z,64.80
2018-09-20T03:36:00.596Z,65.28
2018-09-20T03:38:30.228Z,65.35
2018-09-20T03:40:59.819Z,65.48
2018-09-20T03:43:31.359Z,66.17
2018-09-20T03:46:01.017Z,65.13
2018-09-20T03:48:30.951Z,65.58
2018-09-20T03:51:00.884Z,65.75
2018-09-20T03:53:30.478Z,65.46
2018-09-20T03:56:00.124Z,65.65
2018-09-20T03:58:29.743Z,65.40
2018-09-20T04:00:59.369Z,66.25
2018-09-20T04:03:29.035Z,66.16
2018-09-20T04:05:58.720Z,65.76
2018-09-20T04:08:28.475Z,65.65
2018-09-20T04:10:58.155Z,66.00
2018-09-20T04:13:27.790Z,65.84
2018-09-20T04:15:57.447Z,66.17
2018-09-20T04:18:27.137Z,66.34
2018-09-20T04:20:56.798Z,66.16
2018-09-20T04:23:26.434Z,65.72
2018-09-20T04:25:56.071Z,66.11
2018-09-20T04:28:25.685Z,66.18
2018-09-20T04:30:55.326Z,65.78
2018-09-20T04:33:24.961Z,65.89
2018-09-20T04:35:54.877Z,66.28
2018-09-20T04:38:24.803Z,66.18
2018-09-20T04:40:54.696Z,66.64
2018-09-20T04:43:24.627Z,66.40
2018-09-20T04:45:54.358Z,66.22
2018-09-20T04:48:24.094Z,66.22
2018-09-20T04:50:54.086Z,66.03
2018-09-20T04:53:24.050Z,66.31
2018-09-20T04:55:54.046Z,66.37
2018-09-20T04:58:24.019Z,66.16
2018-09-20T05:00:54.015Z,65.93
2018-09-20T05:03:24.083Z,65.94
2018-09-20T05:05:54.021Z,65.73
2018-09-20T05:08:23.970Z,66.47
2018-09-20T05:10:54.035Z,66.22
2018-09-20T05:13:23.988Z,66.19
2018-09-20T05:15:56.781Z,66.76
2018-09-20T05:18:27.745Z,66.20
2018-09-20T05:20:57.716Z,66.26
2018-09-20T05:23:27.804Z,66.15
2018-09-20T05:25:57.799Z,65.68
2018-09-20T05:28:27.820Z,65.60
2018-09-20T05:30:57.862Z,66.14
2018-09-20T05:33:27.943Z,66.15
2018-09-20T05:35:57.891Z,66.32
2018-09-20T05:38:27.907Z,65.79
2018-09-20T05:40:58.826Z,65.60
2018-09-20T05:43:28.797Z,65.57
2018-09-20T05:46:00.819Z,64.93
2018-09-20T05:49:09.683Z,65.91
2018-09-20T05:51:40.092Z,65.78
2018-09-20T05:54:10.051Z,65.75
2018-09-20T05:56:40.057Z,65.48
2018-09-20T05:59:10.038Z,65.19
2018-09-20T06:01:40.104Z,64.70
2018-09-20T06:04:10.131Z,64.75
2018-09-20T06:06:40.110Z,65.09
2018-09-20T06:09:10.688Z,64.51
2018-09-20T06:11:40.658Z,64.59
2018-09-20T06:14:10.612Z,64.19
2018-09-20T06:16:40.640Z,64.09
2018-09-20T06:19:10.568Z,63.70
2018-09-20T06:21:40.716Z,63.60
2018-09-20T06:24:10.689Z,63.89
2018-09-20T06:26:40.659Z,64.17
2018-09-20T06:29:10.699Z,64.37
2018-09-20T06:31:40.763Z,63.86
2018-09-20T06:34:10.736Z,63.51
2018-09-20T06:36:40.804Z,63.91
2018-09-20T06:39:12.727Z,63.00
2018-09-20T06:41:43.256Z,63.50
2018-09-20T06:44:13.246Z,63.47
2018-09-20T06:46:43.159Z,63.71
2018-09-20T06:49:13.065Z,63.10
2018-09-20T06:51:43.099Z,64.06
2018-09-20T06:54:15.281Z,62.39
2018-09-20T06:56:45.313Z,62.84
2018-09-20T06:59:15.384Z,61.70
2018-09-20T07:01:45.342Z,62.13
2018-09-20T07:04:15.407Z,61.46
2018-09-20T07:06:45.436Z,61.57
2018-09-20T07:09:15.611Z,60.68
2018-09-20T07:11:45.625Z,60.67
2018-09-20T07:14:15.709Z,60.48
2018-09-20T07:16:45.786Z,60.06
2018-09-20T07:19:16.213Z,59.76
2018-09-20T07:21:46.150Z,59.68
2018-09-20T07:24:17.966Z,59.21
2018-09-20T07:26:49.664Z,58.61
2018-09-20T07:29:19.641Z,58.61
2018-09-20T07:31:49.606Z,58.04
2018-09-20T07:34:19.556Z,58.15
2018-09-20T07:36:49.602Z,58.16
2018-09-20T07:39:19.610Z,57.69
2018-09-20T07:41:49.669Z,57.10
2018-09-20T07:44:20.764Z,57.38
2018-09-20T07:46:51.756Z,56.46
2018-09-20T07:49:21.723Z,55.81
2018-09-20T07:51:51.875Z,55.68
2018-09-20T07:54:22.013Z,55.72
2018-09-20T07:56:52.122Z,55.90
2018-09-20T07:59:22.167Z,55.25
2018-09-20T08:01:55.587Z,54.48
2018-09-20T08:04:25.707Z,54.36
2018-09-20T08:06:55.696Z,53.97
2018-09-20T08:09:27.247Z,53.91
2018-09-20T08:11:57.195Z,53.48
2018-09-20T08:14:27.139Z,53.48
2018-09-20T08:16:57.001Z,52.97
2018-09-20T08:19:27.071Z,52.42
2018-09-20T08:21:57.241Z,51.77
2018-09-20T08:24:27.180Z,51.73
2018-09-20T08:26:57.198Z,51.64
2018-09-20T08:29:27.154Z,51.36
2018-09-20T08:31:58.060Z,51.70
2018-09-20T08:34:28.978Z,51.64
2018-09-20T08:36:58.908Z,51.81
2018-09-20T08:39:28.838Z,51.01
2018-09-20T08:41:58.773Z,50.96
2018-09-20T08:44:28.773Z,50.82
2018-09-20T08:46:58.751Z,50.07
2018-09-20T08:51:57.604Z,49.77
2018-09-20T08:54:28.743Z,48.97
2018-09-20T08:56:58.886Z,48.71
2018-09-20T08:59:28.882Z,47.98
2018-09-20T09:02:00.063Z,47.75
2018-09-20T09:04:31.297Z,47.80
2018-09-20T09:07:01.265Z,47.61
2018-09-20T09:09:31.286Z,48.17
2018-09-20T09:12:06.888Z,48.12
2018-09-20T09:14:36.856Z,47.53
2018-09-20T09:17:06.955Z,46.56
2018-09-20T09:19:37.024Z,47.03
2018-09-20T09:22:10.065Z,46.98
2018-09-20T09:24:43.897Z,47.02
2018-09-20T09:27:20.484Z,46.12
2018-09-20T09:29:50.419Z,46.34
2018-09-20T09:32:20.407Z,45.30
2018-09-20T09:34:50.386Z,43.72
2018-09-20T09:37:20.371Z,43.97
2018-09-20T09:39:50.339Z,43.29
2018-09-20T09:42:20.308Z,43.81
2018-09-20T09:44:50.219Z,44.04
2018-09-20T09:47:20.204Z,43.61
2018-09-20T09:49:50.272Z,43.33
2018-09-20T09:52:20.300Z,43.04
2018-09-20T09:54:50.293Z,42.96
2018-09-20T09:57:22.034Z,41.13
2018-09-20T09:59:52.008Z,41.44
2018-09-20T10:02:21.949Z,41.76
2018-09-20T10:04:51.844Z,41.03
2018-09-20T10:07:26.665Z,41.57
2018-09-20T10:09:56.656Z,40.64
2018-09-20T10:12:26.684Z,41.55
2018-09-20T10:14:56.685Z,41.51
2018-09-20T10:17:26.775Z,41.58
2018-09-20T10:19:56.830Z,41.23
2018-09-20T10:22:26.753Z,41.65
2018-09-20T10:24:56.741Z,40.83
2018-09-20T10:27:26.721Z,42.09
2018-09-20T10:29:57.907Z,41.75
2018-09-20T10:32:27.842Z,41.65
2018-09-20T10:34:57.826Z,40.53
2018-09-20T10:37:27.834Z,40.77
2018-09-20T10:39:58.931Z,39.49
2018-09-20T10:42:30.780Z,40.18
2018-09-20T10:45:00.753Z,40.22
2018-09-20T10:47:30.739Z,39.92
2018-09-20T10:50:00.807Z,39.57
2018-09-20T10:52:30.865Z,39.42
2018-09-20T10:55:00.840Z,39.35
2018-09-20T10:57:30.834Z,38.95
2018-09-20T11:00:07.270Z,38.75
2018-09-20T11:02:37.197Z,38.26
2018-09-20T11:05:07.295Z,38.50
2018-09-20T11:07:38.867Z,37.20
2018-09-20T11:10:08.843Z,38.23
2018-09-20T11:12:40.686Z,38.06
2018-09-20T11:15:10.671Z,37.71
2018-09-20T11:17:40.724Z,37.13
2018-09-20T11:20:13.645Z,36.76
2018-09-20T11:22:43.644Z,37.20
2018-09-20T11:25:13.576Z,37.06
2018-09-20T11:27:43.611Z,37.44
2018-09-20T11:30:15.252Z,36.53
2018-09-20T11:32:45.266Z,36.29
2018-09-20T11:35:15.281Z,36.52
2018-09-20T11:37:45.262Z,37.02
2018-09-20T11:40:18.804Z,35.95
2018-09-20T11:42:48.751Z,35.67
2018-09-20T11:45:18.765Z,35.91
2018-09-20T11:47:48.830Z,35.99
2018-09-20T11:50:18.882Z,35.54
2018-09-20T11:52:49.006Z,36.45
2018-09-20T11:55:20.870Z,36.23
2018-09-20T11:57:50.834Z,35.49
2018-09-20T12:00:24.923Z,35.23
2018-09-20T12:02:54.903Z,34.38
2018-09-20T12:05:24.941Z,34.27
2018-09-20T12:07:54.954Z,35.02
2018-09-20T12:10:26.378Z,34.30
2018-09-20T12:12:56.307Z,33.87
2018-09-20T12:15:26.357Z,34.88
2018-09-20T12:17:56.407Z,33.64
2018-09-20T12:20:28.113Z,34.19
2018-09-20T12:22:59.387Z,33.75
2018-09-20T12:25:29.561Z,34.53
2018-09-20T12:28:01.110Z,34.39
2018-09-20T12:30:31.126Z,33.70
2018-09-20T12:33:01.127Z,34.05
2018-09-20T12:35:31.420Z,33.59
2018-09-20T12:38:01.302Z,34.73
2018-09-20T12:40:31.213Z,32.70
2018-09-20T12:43:03.000Z,32.48
2018-09-20T12:45:32.919Z,33.50
2018-09-20T12:48:03.697Z,33.04
2018-09-20T12:50:33.656Z,32.87
2018-09-20T12:53:04.027Z,32.72
2018-09-20T12:55:33.947Z,32.68
2018-09-20T12:58:03.897Z,32.78
2018-09-20T13:00:36.002Z,32.23
2018-09-20T13:03:06.097Z,31.64
2018-09-20T13:05:36.664Z,31.64
2018-09-20T13:08:06.607Z,32.24
2018-09-20T13:10:37.389Z,32.39
2018-09-20T13:13:07.490Z,31.96
2018-09-20T13:15:37.538Z,31.42
2018-09-20T13:18:07.758Z,30.21
2018-09-20T13:20:37.974Z,30.88
2018-09-20T13:23:11.145Z,29.61
2018-09-20T13:25:41.671Z,30.71
2018-09-20T13:28:12.023Z,30.91
2018-09-20T13:30:43.341Z,29.85
2018-09-20T13:33:13.364Z,29.20
2018-09-20T13:35:43.323Z,29.97
2018-09-20T13:38:13.652Z,29.85
2018-09-20T13:40:43.805Z,29.19
2018-09-20T13:43:15.500Z,29.79
2018-09-20T13:45:45.503Z,28.91
2018-09-20T13:48:15.636Z,28.79
2018-09-20T13:50:45.627Z,29.55
2018-09-20T13:53:16.664Z,29.19
2018-09-20T13:55:46.627Z,29.02
2018-09-20T13:58:16.598Z,29.39
2018-09-20T14:00:46.614Z,29.59
2018-09-20T14:03:16.590Z,29.17
2018-09-20T14:05:46.894Z,29.51
2018-09-20T14:08:16.851Z,29.22
2018-09-20T14:10:47.838Z,28.88
2018-09-20T14:13:17.837Z,28.04
2018-09-20T14:15:48.014Z,27.62
2018-09-20T14:18:18.054Z,27.78
2018-09-20T14:20:48.111Z,27.76
2018-09-20T14:23:18.089Z,27.40
2018-09-20T14:25:49.006Z,27.84
2018-09-20T14:28:18.989Z,28.06
2018-09-20T14:30:48.989Z,28.60
2018-09-20T14:33:18.983Z,27.55
2018-09-20T14:35:49.046Z,27.67
2018-09-20T14:38:19.099Z,27.77
2018-09-20T14:40:49.070Z,27.22
2018-09-20T14:43:18.941Z,27.18
2018-09-20T14:45:49.891Z,27.04
2018-09-20T14:48:19.904Z,27.96
2018-09-20T14:50:49.913Z,27.54
2018-09-20T14:53:19.911Z,27.79
2018-09-20T14:55:49.940Z,26.89
2018-09-20T14:58:19.969Z,27.36
2018-09-20T15:00:49.987Z,26.65
2018-09-20T15:03:20.292Z,26.20
2018-09-20T15:05:50.322Z,27.55
2018-09-20T15:08:20.367Z,26.92
2018-09-20T15:10:50.339Z,26.22
2018-09-20T15:13:20.359Z,27.33
2018-09-20T15:15:50.360Z,26.99
2018-09-20T15:18:20.332Z,26.58
2018-09-20T15:20:50.317Z,26.85
2018-09-20T15:23:20.365Z,27.46
2018-09-20T15:25:51.563Z,26.43
2018-09-20T15:28:21.652Z,26.80
2018-09-20T15:30:51.637Z,26.48
2018-09-20T15:33:21.619Z,27.19
2018-09-20T15:35:51.641Z,27.04
2018-09-20T15:38:21.663Z,26.79
2018-09-20T15:40:51.675Z,26.81
2018-09-20T15:43:21.715Z,28.04
2018-09-20T15:45:51.931Z,27.75
2018-09-20T15:48:21.901Z,27.59
2018-09-20T15:50:51.911Z,27.52
2018-09-20T15:53:21.846Z,27.02
2018-09-20T15:55:51.806Z,27.47
2018-09-20T15:58:21.924Z,27.61
2018-09-20T16:00:51.875Z,27.13
2018-09-20T16:03:21.853Z,27.52
2018-09-20T16:05:51.995Z,27.62
2018-09-20T16:08:21.943Z,27.68
2018-09-20T16:10:52.110Z,28.21
2018-09-20T16:13:22.081Z,28.51
2018-09-20T16:15:52.056Z,28.95
2018-09-20T16:18:22.069Z,29.05
2018-09-20T16:20:52.007Z,28.55
2018-09-20T16:23:21.959Z,28.72
2018-09-20T16:25:51.950Z,28.02
2018-09-20T16:28:40.000Z,28.13
2018-09-20T16:32:00.662Z,28.41
2018-09-20T16:35:13.831Z,28.21
2018-09-20T16:37:59.192Z,28.62
2018-09-20T16:40:32.891Z,28.89
2018-09-20T16:43:04.656Z,29.06
2018-09-20T16:45:34.712Z,29.83
2018-09-20T16:48:04.774Z,30.31
2018-09-20T16:50:34.817Z,31.91
2018-09-20T16:53:07.100Z,31.73
2018-09-20T16:55:37.199Z,30.58
2018-09-20T16:58:07.244Z,30.75
2018-09-20T17:00:37.167Z,31.28
2018-09-20T17:03:07.355Z,30.41
2018-09-20T17:05:37.383Z,31.08
2018-09-20T17:08:07.352Z,30.65
2018-09-20T17:10:37.391Z,30.53
2018-09-20T17:13:07.569Z,31.34
2018-09-20T17:15:39.492Z,31.18
2018-09-20T17:18:09.464Z,31.45
2018-09-20T17:20:39.691Z,31.89
2018-09-20T17:23:09.817Z,31.28
2018-09-20T17:25:39.820Z,31.69
2018-09-20T17:28:09.994Z,32.24
2018-09-20T17:30:41.078Z,32.10
2018-09-20T17:33:13.326Z,32.86
2018-09-20T17:35:43.787Z,33.03
2018-09-20T17:38:15.359Z,33.39
2018-09-20T17:40:47.594Z,34.13
2018-09-20T17:43:20.752Z,33.47
2018-09-20T17:45:50.833Z,34.10
2018-09-20T17:48:20.934Z,34.48
2018-09-20T17:50:51.408Z,34.62
2018-09-20T17:53:22.037Z,34.70
2018-09-20T17:55:52.812Z,34.91
2018-09-20T17:58:23.490Z,34.33
2018-09-20T18:00:53.520Z,35.32
2018-09-20T18:03:23.540Z,35.32
2018-09-20T18:05:53.604Z,35.32
2018-09-20T18:08:23.740Z,35.32
2018-09-20T18:10:53.862Z,35.79
2018-09-20T18:13:23.937Z,36.15
2018-09-20T18:15:53.947Z,35.69
2018-09-20T18:18:24.206Z,36.32
2018-09-20T18:20:54.115Z,36.43
2018-09-20T18:23:24.200Z,36.09
2018-09-20T18:25:54.329Z,36.03
2018-09-20T18:28:24.322Z,35.69
2018-09-20T18:30:54.367Z,35.98
2018-09-20T18:33:24.452Z,35.75
2018-09-20T18:35:54.502Z,35.93
2018-09-20T18:38:24.603Z,36.70
2018-09-20T18:40:54.604Z,36.10
2018-09-20T18:43:24.629Z,36.57
2018-09-20T18:45:54.671Z,36.53
2018-09-20T18:48:25.703Z,36.48
2018-09-20T18:50:55.676Z,36.48
2018-09-20T18:53:25.654Z,36.19
2018-09-20T18:55:55.669Z,36.94
2018-09-20T18:58:25.664Z,37.21
2018-09-20T19:00:57.848Z,36.82
2018-09-20T19:03:28.162Z,37.00
2018-09-20T19:05:58.195Z,38.36
2018-09-20T19:08:28.187Z,38.22
2018-09-20T19:10:58.224Z,36.64
2018-09-20T19:13:28.237Z,38.20
2018-09-20T19:15:58.264Z,37.48
2018-09-20T19:18:28.285Z,37.47
2018-09-20T19:20:58.349Z,38.17
2018-09-20T19:23:28.274Z,38.66
2018-09-20T19:25:58.322Z,38.11
2018-09-20T19:28:28.346Z,38.24
2018-09-20T19:30:58.408Z,38.72
2018-09-20T19:33:28.349Z,38.50
2018-09-20T19:35:58.410Z,38.93
2018-09-20T19:38:28.478Z,39.00
2018-09-20T19:40:58.433Z,38.34
2018-09-20T19:43:28.466Z,38.40
2018-09-20T19:45:59.511Z,39.03
2018-09-20T19:48:29.607Z,39.15
2018-09-20T19:50:59.691Z,38.68
2018-09-20T19:53:29.668Z,39.75
2018-09-20T19:55:59.730Z,39.73
2018-09-20T19:58:29.771Z,39.80
2018-09-20T20:00:59.769Z,39.79
2018-09-20T20:03:29.824Z,39.08
2018-09-20T20:05:59.887Z,39.79
2018-09-20T20:08:29.860Z,39.92
2018-09-20T20:10:59.944Z,39.77
2018-09-20T20:13:30.135Z,39.81
2018-09-20T20:16:00.190Z,39.52
2018-09-20T20:18:32.282Z,39.16
2018-09-20T20:21:02.279Z,39.52
2018-09-20T20:23:32.273Z,40.35
2018-09-20T20:26:02.333Z,40.02
2018-09-20T20:28:32.497Z,40.27
2018-09-20T20:31:02.501Z,39.66
2018-09-20T20:33:32.480Z,39.80
2018-09-20T20:36:03.432Z,39.96
2018-09-20T20:38:33.403Z,40.07
2018-09-20T20:41:03.407Z,40.25
2018-09-20T20:43:33.373Z,41.24
2018-09-20T20:46:03.381Z,40.62
2018-09-20T20:48:33.382Z,40.80
2018-09-20T20:51:03.317Z,40.64
2018-09-20T20:53:33.331Z,40.36
2018-09-20T20:56:03.308Z,40.74
2018-09-20T20:58:33.425Z,40.74
2018-09-20T21:01:03.362Z,40.72
2018-09-20T21:03:33.374Z,41.27
2018-09-20T21:06:03.334Z,41.59
2018-09-20T21:08:33.380Z,42.01
2018-09-20T21:11:03.353Z,41.43
2018-09-20T21:13:33.326Z,42.18
2018-09-20T21:16:03.202Z,41.84
2018-09-20T21:18:33.210Z,42.17
2018-09-20T21:21:03.212Z,41.31
2018-09-20T21:23:33.195Z,41.98
2018-09-20T21:26:03.172Z,42.30
2018-09-20T21:28:33.207Z,42.05
2018-09-20T21:31:03.186Z,42.08
2018-09-20T21:33:33.168Z,43.04
2018-09-20T21:36:03.118Z,42.73
2018-09-20T21:38:33.057Z,42.42
2018-09-20T21:41:03.013Z,43.25
2018-09-20T21:43:33.568Z,42.96
2018-09-20T21:46:03.539Z,44.96
2018-09-20T21:48:33.551Z,42.87
2018-09-20T21:51:04.338Z,43.34
2018-09-20T21:53:34.225Z,44.03
2018-09-20T21:56:04.212Z,42.96
2018-09-20T21:58:36.263Z,44.05
2018-09-20T22:01:06.237Z,44.26
2018-09-20T22:03:36.262Z,43.59
2018-09-20T22:06:06.249Z,44.13
2018-09-20T22:08:36.239Z,43.83
2018-09-20T22:11:06.358Z,44.64
2018-09-20T22:13:36.347Z,44.21
2018-09-20T22:16:06.556Z,44.46
2018-09-20T22:18:36.512Z,44.75
2018-09-20T22:21:06.413Z,44.90
2018-09-20T22:23:36.399Z,44.91
2018-09-20T22:26:06.376Z,44.63
2018-09-20T22:28:36.486Z,45.25
2018-09-20T22:31:06.891Z,46.34
2018-09-20T22:33:37.768Z,45.31
2018-09-20T22:36:07.618Z,45.74
2018-09-20T22:38:37.547Z,45.47
2018-09-20T22:41:07.628Z,45.96
2018-09-20T22:43:37.561Z,45.09
2018-09-20T22:46:07.566Z,45.67
2018-09-20T22:48:37.455Z,45.61
2018-09-20T22:51:07.669Z,45.48
2018-09-20T22:53:37.807Z,45.28
2018-09-20T22:56:07.838Z,45.39
2018-09-20T22:58:37.833Z,45.96
2018-09-20T23:01:08.039Z,45.98
2018-09-20T23:03:37.970Z,45.95
2018-09-20T23:06:07.635Z,46.32
2018-09-20T23:08:38.649Z,46.54
2018-09-20T23:11:08.615Z,46.06
2018-09-20T23:13:38.623Z,46.16
2018-09-20T23:16:08.584Z,46.47
2018-09-20T23:18:38.605Z,46.46
2018-09-20T23:21:08.643Z,45.75
2018-09-20T23:23:38.626Z,46.57
2018-09-20T23:26:08.608Z,46.51
2018-09-20T23:28:38.567Z,46.29
2018-09-20T23:31:08.572Z,47.34
2018-09-20T23:33:38.564Z,47.06
2018-09-20T23:36:08.526Z,47.40
2018-09-20T23:38:38.501Z,47.28
2018-09-20T23:41:08.474Z,46.87
2018-09-20T23:43:38.402Z,46.84
2018-09-20T23:46:08.436Z,47.29
2018-09-20T23:48:38.379Z,47.13
2018-09-20T23:51:08.369Z,47.13
2018-09-20T23:53:38.311Z,46.73
2018-09-20T23:56:08.301Z,47.02
2018-09-20T23:58:38.292Z,47.05
